Terminal Aerodrome Forecast
Issued by NWS

Current Version | Previous Version | Text Only | Print | Product List | Glossary On
Versions: 1 2 3 4 5 6 7 8 9 10 11 12 13 14 15 16 17 18 19 20 21 22 23 24 25 26 27 28 29 30 31 32 33 34 35 36 37 38 39 40 41 42 43 44 45 46 47 48 49 50
282
FTUS45 KBOU 280308 AAB
TAFAPA
TAF AMD
KAPA 280308Z 2803/2824 10010KT P6SM FEW110 BKN200
     FM280500 13011KT P6SM FEW100 SCT200
     FM280700 18011KT P6SM FEW120 SCT200
     FM281200 VRB05KT P6SM FEW140
     FM281500 35005KT P6SM FEW150
     FM281900 03013KT P6SM FEW080 SCT140
     FM282300 06012G20KT P6SM SCT080 BKN120=

USA.gov is the U.S. government's official web portal to all federal, state and local government web resources and services.